Time;durP1;ratioP1;P1;durP2;ratioP2;P2;SDS_P1;SDS_P2;PMS_P1;PMS_P2;Temp;Humidity;BMP_temperature;BMP_pressure;BME280_temperature;BME280_humidity;BME280_pressure;Samples;Min_cycle;Max_cycle;Signal;HPM_P1;HPM_P2
2022/08/15 00:00:55;;;;;;;0.10;0.10;;;24.80;77.50;;;;;;4916726;29;20059;-75
2022/08/15 00:03:41;;;;;;;0.47;0.22;;;24.80;78.00;;;;;;4932589;29;20115;-75
2022/08/15 00:06:14;;;;;;;0.40;0.32;;;24.80;78.30;;;;;;4918228;29;20040;-75
2022/08/15 00:08:53;;;;;;;0.93;0.52;;;24.90;78.60;;;;;;4916883;29;20032;-75
2022/08/15 00:11:39;;;;;;;0.20;0.15;;;24.70;79.60;;;;;;4918087;29;20489;-75
2022/08/15 00:14:15;;;;;;;0.70;0.50;;;24.70;80.40;;;;;;4917865;29;20047;-75
2022/08/15 00:16:43;;;;;;;0.05;0.05;;;24.70;80.70;;;;;;4932060;29;20038;-75
2022/08/15 00:19:24;;;;;;;1.75;0.55;;;24.70;81.20;;;;;;4932397;29;20036;-75
2022/08/15 00:22:04;;;;;;;0.15;0.15;;;24.70;81.50;;;;;;4932463;29;20039;-75
2022/08/15 00:24:34;;;;;;;0.10;0.10;;;24.70;82.10;;;;;;4918049;29;20548;-75
2022/08/15 00:27:04;;;;;;;1.20;1.13;;;24.60;83.20;;;;;;4932036;29;20071;-75
2022/08/15 00:29:31;;;;;;;;;;;24.50;83.90;;;;;;4918365;29;20122;-75
2022/08/15 00:31:59;;;;;;;0.13;0.10;;;24.50;84.70;;;;;;4932214;29;19911;-75
2022/08/15 00:34:25;;;;;;;0.22;0.17;;;24.50;85.70;;;;;;4932455;29;20040;-75
2022/08/15 00:36:51;;;;;;;0.10;0.10;;;24.40;87.30;;;;;;4932151;29;20032;-75
2022/08/15 00:39:20;;;;;;;5.15;0.57;;;24.50;87.50;;;;;;4917450;29;20493;-75
2022/08/15 00:41:48;;;;;;;0.00;0.00;;;24.40;88.70;;;;;;4931742;29;20039;-75
2022/08/15 00:44:24;;;;;;;0.63;0.40;;;24.30;90.20;;;;;;4931907;29;20382;-74
2022/08/15 00:46:58;;;;;;;0.68;0.57;;;24.30;90.70;;;;;;4917425;29;20123;-75
2022/08/15 00:49:28;;;;;;;0.15;0.15;;;24.30;91.20;;;;;;4931772;29;20091;-75
2022/08/15 00:52:08;;;;;;;0.17;0.13;;;24.20;91.90;;;;;;4931580;29;20046;-75
2022/08/15 00:54:38;;;;;;;2.13;0.77;;;24.20;92.40;;;;;;4931590;29;20044;-75
2022/08/15 00:57:13;;;;;;;0.47;0.38;;;24.20;92.80;;;;;;4931579;29;20059;-76
2022/08/15 00:59:47;;;;;;;0.63;0.63;;;24.20;93.10;;;;;;4931325;29;20032;-75
2022/08/15 01:02:19;;;;;;;0.00;0.00;;;24.20;93.50;;;;;;4930503;29;20036;-75
2022/08/15 01:04:45;;;;;;;0.25;0.22;;;24.30;93.70;;;;;;4925829;29;20051;-75
2022/08/15 01:07:12;;;;;;;0.38;0.10;;;24.20;93.90;;;;;;4907214;29;20616;-75
2022/08/15 01:09:39;;;;;;;0.15;0.15;;;24.20;94.10;;;;;;4920032;29;20036;-76
2022/08/15 01:12:17;;;;;;;0.20;0.20;;;24.20;94.30;;;;;;4925742;29;20036;-76
2022/08/15 01:14:49;;;;;;;1.05;0.80;;;24.10;94.50;;;;;;4929045;29;20485;-76
2022/08/15 01:17:16;;;;;;;0.45;0.30;;;24.20;94.70;;;;;;4896508;29;20048;-76
2022/08/15 01:19:59;;;;;;;0.80;0.32;;;24.20;94.80;;;;;;4896864;29;20025;-75
2022/08/15 01:22:56;;;;;;;1.55;0.85;;;24.10;94.90;;;;;;4896562;29;20047;-75
2022/08/15 01:25:33;;;;;;;0.10;0.10;;;24.10;95.20;;;;;;4930410;29;20544;-75
2022/08/15 01:28:24;;;;;;;3.47;1.23;;;24.10;95.30;;;;;;4916556;29;20087;-75
2022/08/15 01:30:56;;;;;;;0.50;0.38;;;24.10;95.50;;;;;;4916724;29;20103;-76
2022/08/15 01:33:26;;;;;;;0.20;0.10;;;24.00;95.60;;;;;;4930515;29;20039;-76
2022/08/15 01:35:54;;;;;;;0.17;0.17;;;24.00;95.70;;;;;;4916806;29;20040;-76
2022/08/15 01:38:36;;;;;;;0.00;0.00;;;23.90;96.00;;;;;;4916384;29;20047;-75
2022/08/15 01:41:14;;;;;;;0.10;0.10;;;23.90;96.30;;;;;;4909163;29;20025;-74
2022/08/15 01:43:57;;;;;;;0.30;0.22;;;23.90;96.40;;;;;;4897550;29;20472;-76
2022/08/15 01:46:28;;;;;;;3.80;1.08;;;23.80;96.50;;;;;;4896522;29;20041;-76
2022/08/15 01:49:01;;;;;;;;;;;23.80;96.70;;;;;;4896472;29;20097;-75
2022/08/15 01:51:27;;;;;;;0.08;0.08;;;23.70;96.90;;;;;;4911682;29;19994;-76
2022/08/15 01:54:02;;;;;;;0.30;0.30;;;23.60;97.20;;;;;;4897119;29;20096;-76
2022/08/15 01:56:39;;;;;;;0.52;0.40;;;23.60;97.40;;;;;;4896368;29;20048;-76
2022/08/15 01:59:11;;;;;;;32.90;0.60;;;23.60;97.60;;;;;;4895996;29;20028;-76
2022/08/15 02:01:57;;;;;;;0.20;0.20;;;23.60;97.60;;;;;;4957029;23;20633;-72
2022/08/15 02:04:31;;;;;;;1.65;0.32;;;23.60;97.70;;;;;;4976541;28;20029;-73
2022/08/15 02:07:00;;;;;;;0.15;0.08;;;23.60;97.70;;;;;;4973564;28;20022;-73
2022/08/15 02:09:27;;;;;;;0.52;0.40;;;23.60;97.60;;;;;;4971852;28;20411;-73
2022/08/15 02:11:54;;;;;;;0.03;0.03;;;23.60;97.60;;;;;;4952766;28;20027;-73
2022/08/15 02:14:22;;;;;;;0.20;0.10;;;23.60;97.60;;;;;;4953409;28;20073;-72
2022/08/15 02:16:49;;;;;;;0.68;0.55;;;23.60;97.70;;;;;;4973097;28;20042;-73
2022/08/15 02:19:15;;;;;;;0.00;0.00;;;23.50;97.90;;;;;;4987991;28;20033;-73
2022/08/15 02:21:46;;;;;;;0.90;0.52;;;23.50;97.90;;;;;;4972920;28;20364;-72
2022/08/15 02:24:23;;;;;;;0.10;0.10;;;23.60;97.90;;;;;;4987945;28;20031;-73
2022/08/15 02:26:53;;;;;;;0.32;0.32;;;23.50;98.00;;;;;;4973404;28;20050;-73
2022/08/15 02:29:25;;;;;;;;;;;23.50;98.10;;;;;;4988412;28;20105;-73
2022/08/15 02:31:55;;;;;;;0.43;0.43;;;23.50;98.00;;;;;;4987903;28;19991;-73
2022/08/15 02:34:21;;;;;;;0.55;0.55;;;23.40;98.20;;;;;;4987285;28;20435;-72
2022/08/15 02:36:48;;;;;;;0.35;0.30;;;23.50;98.40;;;;;;4972868;28;20027;-73
2022/08/15 02:39:13;;;;;;;0.28;0.28;;;23.40;98.50;;;;;;4987366;28;20038;-73
2022/08/15 02:41:50;;;;;;;1.50;0.15;;;23.40;98.60;;;;;;4987825;28;20027;-73
2022/08/15 02:44:20;;;;;;;2.08;1.13;;;23.40;98.50;;;;;;4973003;28;20030;-73
2022/08/15 02:46:51;;;;;;;1.70;0.75;;;23.40;98.40;;;;;;4972837;28;20502;-73
2022/08/15 02:49:18;;;;;;;;;;;23.40;98.50;;;;;;4987778;28;20031;-72
2022/08/15 02:51:46;;;;;;;0.00;0.00;;;23.40;98.70;;;;;;4972701;28;19914;-73
2022/08/15 02:54:15;;;;;;;0.10;0.10;;;23.30;98.90;;;;;;4987214;28;20054;-72
2022/08/15 02:56:41;;;;;;;0.10;0.10;;;23.30;99.00;;;;;;4987143;28;20122;-73
2022/08/15 02:59:08;;;;;;;2.47;0.85;;;23.30;99.10;;;;;;4972362;28;20110;-73
2022/08/15 03:01:37;;;;;;;0.00;0.00;;;23.30;99.00;;;;;;4972370;28;20517;-73
2022/08/15 03:04:10;;;;;;;0.22;0.22;;;23.30;99.10;;;;;;4972305;28;20030;-73
2022/08/15 03:06:38;;;;;;;0.00;0.00;;;23.30;99.00;;;;;;4971404;28;20038;-72
2022/08/15 03:09:07;;;;;;;0.25;0.20;;;23.20;99.20;;;;;;4972027;28;20030;-72
2022/08/15 03:11:39;;;;;;;1.90;1.25;;;23.20;99.40;;;;;;4987294;28;20341;-73
2022/08/15 03:14:19;;;;;;;0.40;0.30;;;23.20;99.70;;;;;;4987014;28;20030;-72
2022/08/15 03:16:47;;;;;;;0.05;0.00;;;23.20;99.60;;;;;;4968045;28;20039;-72
2022/08/15 03:19:18;;;;;;;0.47;0.43;;;23.10;99.70;;;;;;4952789;28;20555;-73
2022/08/15 03:21:46;;;;;;;0.25;0.20;;;23.20;99.80;;;;;;4952111;29;20494;-73
2022/08/15 03:24:13;;;;;;;0.68;0.55;;;23.20;99.80;;;;;;4952962;28;20055;-73
2022/08/15 03:26:39;;;;;;;0.20;0.17;;;23.20;99.70;;;;;;4935971;29;20035;-73
2022/08/15 03:29:06;;;;;;;0.10;0.10;;;23.20;99.80;;;;;;4951727;29;20031;-75
2022/08/15 03:31:35;;;;;;;2.90;0.75;;;23.20;99.90;;;;;;4951672;29;20118;-72
2022/08/15 03:34:02;;;;;;;0.20;0.20;;;23.20;99.90;;;;;;4952618;28;20039;-73
2022/08/15 03:36:27;;;;;;;0.52;0.45;;;23.20;99.90;;;;;;4955525;29;20042;-73
2022/08/15 03:38:53;;;;;;;1.25;1.13;;;23.20;99.90;;;;;;4956964;28;20035;-73
2022/08/15 03:41:20;;;;;;;0.00;0.00;;;23.20;99.90;;;;;;4956619;28;20023;-72
2022/08/15 03:43:46;;;;;;;1.50;0.45;;;23.10;99.90;;;;;;4956820;28;20031;-73
2022/08/15 03:46:18;;;;;;;0.15;0.10;;;23.10;99.90;;;;;;4956770;28;20463;-73
2022/08/15 03:48:50;;;;;;;1.45;0.80;;;23.10;99.90;;;;;;4955484;29;20046;-73
2022/08/15 03:51:20;;;;;;;0.00;0.00;;;23.00;99.90;;;;;;4956434;28;20028;-72
2022/08/15 03:53:50;;;;;;;0.15;0.15;;;22.90;99.90;;;;;;4956574;28;20035;-73
2022/08/15 03:56:21;;;;;;;0.38;0.35;;;22.90;99.90;;;;;;4956573;28;20107;-72
2022/08/15 03:58:47;;;;;;;0.10;0.10;;;22.90;99.90;;;;;;4956277;28;20027;-74
2022/08/15 04:01:19;;;;;;;0.43;0.43;;;22.90;99.90;;;;;;4954907;28;20415;-74
2022/08/15 04:03:47;;;;;;;3.30;1.02;;;22.90;99.90;;;;;;4902874;28;20065;-73
2022/08/15 04:06:19;;;;;;;1.27;0.88;;;23.00;99.90;;;;;;4955143;29;20166;-74
2022/08/15 04:08:47;;;;;;;0.20;0.20;;;23.00;99.90;;;;;;4980670;28;20045;-76
2022/08/15 04:11:16;;;;;;;1.75;1.13;;;23.00;99.90;;;;;;4975465;28;20030;-73
2022/08/15 04:13:43;;;;;;;0.60;0.60;;;23.20;99.90;;;;;;4990399;28;20037;-73
2022/08/15 04:16:09;;;;;;;1.65;0.32;;;23.10;99.90;;;;;;4973071;28;20053;-76
2022/08/15 04:18:36;;;;;;;1.23;1.00;;;23.00;99.90;;;;;;4972935;28;20769;-73
2022/08/15 04:21:06;;;;;;;0.10;0.10;;;23.00;99.90;;;;;;4975005;28;20027;-72
2022/08/15 04:23:33;;;;;;;0.00;0.00;;;22.90;99.90;;;;;;4973970;28;20487;-73
2022/08/15 04:25:59;;;;;;;0.55;0.30;;;22.80;99.90;;;;;;4974927;28;20506;-73
2022/08/15 04:28:29;;;;;;;1.83;0.20;;;22.80;99.90;;;;;;4948958;28;20047;-73
2022/08/15 04:30:56;;;;;;;0.10;0.10;;;22.70;99.90;;;;;;4958401;28;20038;-72
2022/08/15 04:33:27;;;;;;;0.10;0.10;;;22.70;99.90;;;;;;4962542;28;20503;-72
2022/08/15 04:36:10;;;;;;;8.20;0.88;;;22.60;99.90;;;;;;4972600;28;20031;-72
2022/08/15 04:38:42;;;;;;;1.00;0.93;;;22.50;99.90;;;;;;4963093;28;20038;-73
2022/08/15 04:41:09;;;;;;;0.20;0.20;;;22.50;99.90;;;;;;4973531;28;20662;-75
2022/08/15 04:43:38;;;;;;;1.55;1.00;;;22.50;99.90;;;;;;4973134;28;20066;-73
2022/08/15 04:46:05;;;;;;;2.10;1.10;;;22.50;99.90;;;;;;4974750;28;20027;-72
2022/08/15 04:48:31;;;;;;;0.10;0.10;;;22.30;99.90;;;;;;4973393;28;20023;-78
2022/08/15 04:51:00;;;;;;;0.30;0.20;;;22.20;99.90;;;;;;4974437;28;20093;-76
2022/08/15 04:53:29;;;;;;;0.03;0.03;;;22.10;99.90;;;;;;4957336;28;20037;-76
2022/08/15 04:55:56;;;;;;;0.38;0.38;;;22.10;99.90;;;;;;4971333;28;20475;-77
2022/08/15 04:58:23;;;;;;;0.13;0.10;;;22.10;99.90;;;;;;4971796;28;20031;-77
2022/08/15 05:01:02;;;;;;;0.75;0.32;;;22.20;99.90;;;;;;4973085;28;20073;-76
2022/08/15 05:03:28;;;;;;;0.25;0.25;;;22.00;99.90;;;;;;4973870;28;20110;-74
2022/08/15 05:06:07;;;;;;;3.05;1.25;;;21.90;99.90;;;;;;4973000;28;20023;-75
2022/08/15 05:08:36;;;;;;;0.15;0.15;;;21.80;99.90;;;;;;4974102;28;20116;-75
2022/08/15 05:11:08;;;;;;;0.57;0.52;;;21.70;99.90;;;;;;4940939;28;20035;-74
2022/08/15 05:13:37;;;;;;;2.05;0.65;;;21.70;99.90;;;;;;4974218;28;20046;-75
2022/08/15 05:16:07;;;;;;;0.20;0.20;;;21.70;99.90;;;;;;4973513;28;20046;-76
2022/08/15 05:18:36;;;;;;;6.13;1.25;;;21.70;99.90;;;;;;4973282;28;20074;-76
2022/08/15 05:21:02;;;;;;;0.47;0.47;;;21.80;99.90;;;;;;4972804;28;20464;-74
2022/08/15 05:23:29;;;;;;;0.10;0.10;;;21.70;99.90;;;;;;4972777;28;20387;-73
2022/08/15 05:25:59;;;;;;;0.10;0.10;;;21.70;99.90;;;;;;4974240;28;20038;-73
2022/08/15 05:28:26;;;;;;;0.47;0.40;;;21.50;99.90;;;;;;4973052;28;20031;-74
2022/08/15 05:30:54;;;;;;;0.65;0.63;;;21.60;99.90;;;;;;4973675;28;20065;-74
2022/08/15 05:33:27;;;;;;;2.65;0.90;;;21.50;99.90;;;;;;4955547;28;20027;-75
2022/08/15 05:35:58;;;;;;;0.00;0.00;;;21.60;99.90;;;;;;4955710;28;20027;-74
2022/08/15 05:38:27;;;;;;;7.83;1.33;;;21.40;99.90;;;;;;4973459;28;20097;-74
2022/08/15 05:41:18;;;;;;;0.70;0.45;;;21.10;99.90;;;;;;4972564;28;20278;-73
2022/08/15 05:43:48;;;;;;;0.10;0.10;;;21.20;99.90;;;;;;4973696;28;20113;-75
2022/08/15 05:46:43;;;;;;;0.95;0.90;;;21.00;99.90;;;;;;4973999;28;20042;-75
2022/08/15 05:49:26;;;;;;;0.10;0.10;;;21.00;99.90;;;;;;4972569;28;20034;-75
2022/08/15 05:52:05;;;;;;;0.00;0.00;;;20.90;99.90;;;;;;4972599;28;20388;-75
2022/08/15 05:55:15;;;;;;;6.97;0.55;;;20.90;99.90;;;;;;4972381;28;20056;-74
2022/08/15 05:58:21;;;;;;;2.03;1.30;;;20.80;99.90;;;;;;4972009;28;20031;-75
2022/08/15 06:01:05;;;;;;;0.00;0.00;;;20.90;99.90;;;;;;4971587;28;20084;-75
2022/08/15 06:03:36;;;;;;;0.25;0.20;;;20.90;99.90;;;;;;4972166;28;20098;-75
2022/08/15 06:06:09;;;;;;;0.20;0.17;;;21.00;99.90;;;;;;4987974;28;20023;-75
2022/08/15 06:08:43;;;;;;;1.17;0.85;;;20.90;99.90;;;;;;4973152;28;20613;-75
2022/08/15 06:11:29;;;;;;;0.35;0.35;;;20.90;99.90;;;;;;4965275;28;20039;-68
2022/08/15 06:14:06;;;;;;;2.75;0.77;;;20.80;99.90;;;;;;4953239;28;20566;-70
2022/08/15 06:16:45;;;;;;;0.47;0.47;;;20.80;99.90;;;;;;4953021;28;20038;-70
2022/08/15 06:19:32;;;;;;;0.25;0.25;;;20.70;99.90;;;;;;4952336;28;20027;-70
2022/08/15 06:22:22;;;;;;;0.00;0.00;;;20.80;99.90;;;;;;4951542;28;20531;-68
2022/08/15 06:25:18;;;;;;;1.38;1.27;;;20.90;99.90;;;;;;4966128;28;20037;-68
2022/08/15 06:28:23;;;;;;;0.30;0.30;;;20.90;99.90;;;;;;4972078;28;20042;-68
2022/08/15 06:31:22;;;;;;;0.60;0.60;;;20.90;99.90;;;;;;4971571;28;20039;-71
2022/08/15 06:34:19;;;;;;;0.28;0.28;;;21.00;99.90;;;;;;4970388;28;20035;-71
2022/08/15 06:37:36;;;;;;;0.32;0.32;;;21.00;99.90;;;;;;4971630;28;20058;-72
2022/08/15 06:40:25;;;;;;;0.10;0.10;;;21.00;99.90;;;;;;4951724;28;20113;-72
2022/08/15 06:42:50;;;;;;;4.75;1.55;;;21.00;99.90;;;;;;4951426;28;20037;-70
2022/08/15 06:45:37;;;;;;;8.02;1.98;;;21.20;99.90;;;;;;4951743;28;20031;-73
2022/08/15 06:48:11;;;;;;;5.72;0.65;;;21.10;99.90;;;;;;4952780;28;20019;-72
2022/08/15 06:50:41;;;;;;;0.00;0.00;;;21.00;99.90;;;;;;4938045;29;20432;-71
2022/08/15 06:53:18;;;;;;;5.15;0.52;;;21.00;99.90;;;;;;4953144;29;20094;-72
2022/08/15 06:56:04;;;;;;;0.52;0.20;;;21.10;99.90;;;;;;4952083;29;20043;-72
2022/08/15 06:59:14;;;;;;;24.30;0.98;;;21.00;99.90;;;;;;4952265;29;20726;-71
2022/08/15 07:02:04;;;;;;;2.17;1.08;;;21.00;99.90;;;;;;4952980;29;20035;-72
2022/08/15 07:05:05;;;;;;;0.70;0.65;;;21.00;99.90;;;;;;4951861;29;20518;-72
2022/08/15 07:07:54;;;;;;;;;;;21.00;99.90;;;;;;4953956;28;20089;-73
2022/08/15 07:10:50;;;;;;;0.20;0.20;;;21.10;99.90;;;;;;4970330;28;19952;-73
2022/08/15 07:13:24;;;;;;;1.55;1.08;;;21.10;99.90;;;;;;4972137;28;20046;-72
2022/08/15 07:16:02;;;;;;;3.40;1.83;;;21.00;99.90;;;;;;4972630;28;20043;-73
2022/08/15 07:18:50;;;;;;;0.00;0.00;;;21.10;99.90;;;;;;4972367;28;20038;-72
2022/08/15 07:21:20;;;;;;;0.10;0.05;;;21.20;99.90;;;;;;4970971;28;20045;-74
2022/08/15 07:24:11;;;;;;;0.38;0.28;;;21.10;99.90;;;;;;4954633;28;20491;-72
2022/08/15 07:27:15;;;;;;;0.10;0.10;;;21.10;99.90;;;;;;4955643;28;20038;-73
2022/08/15 07:29:54;;;;;;;0.00;0.00;;;21.20;99.90;;;;;;4970821;28;20035;-71
2022/08/15 07:32:20;;;;;;;0.95;0.90;;;20.90;99.90;;;;;;4971512;28;20399;-72
2022/08/15 07:35:12;;;;;;;7.30;0.98;;;20.90;99.90;;;;;;4972005;28;20042;-70
2022/08/15 07:37:58;;;;;;;0.35;0.35;;;21.00;99.90;;;;;;4971868;28;20038;-68
2022/08/15 07:40:36;;;;;;;1.48;1.10;;;21.00;99.90;;;;;;4971964;28;20035;-69
2022/08/15 07:43:22;;;;;;;1.10;0.75;;;21.00;99.90;;;;;;4971652;28;20027;-69
2022/08/15 07:45:51;;;;;;;0.00;0.00;;;20.90;99.90;;;;;;4971194;28;20027;-69
2022/08/15 07:48:27;;;;;;;0.10;0.10;;;20.90;99.90;;;;;;4971490;28;20518;-69
2022/08/15 07:51:15;;;;;;;0.10;0.10;;;20.80;99.90;;;;;;4969820;28;20513;-70
2022/08/15 07:54:02;;;;;;;0.10;0.10;;;20.90;99.90;;;;;;4971753;28;20043;-69
2022/08/15 07:56:32;;;;;;;0.32;0.20;;;21.00;99.90;;;;;;4970752;28;20027;-69
2022/08/15 07:59:24;;;;;;;0.20;0.20;;;21.00;99.90;;;;;;4971702;28;20567;-70
2022/08/15 08:02:03;;;;;;;0.82;0.50;;;21.00;99.90;;;;;;4970514;28;20038;-71
2022/08/15 08:04:30;;;;;;;0.20;0.20;;;21.20;99.90;;;;;;4955732;28;20057;-69
2022/08/15 08:07:42;;;;;;;0.57;0.32;;;21.10;99.90;;;;;;4963098;28;20047;-70
2022/08/15 08:10:15;;;;;;;0.08;0.08;;;21.00;99.90;;;;;;4925331;28;20238;-69
2022/08/15 08:13:12;;;;;;;0.00;0.00;;;21.10;99.90;;;;;;4968636;28;20376;-69
2022/08/15 08:16:19;;;;;;;2.22;0.88;;;21.30;99.90;;;;;;4961358;28;20035;-69
2022/08/15 08:19:03;;;;;;;1.63;1.23;;;21.40;99.90;;;;;;4953639;28;20414;-69
2022/08/15 08:21:56;;;;;;;0.52;0.35;;;21.50;99.90;;;;;;4958825;28;20042;-69
2022/08/15 08:24:27;;;;;;;0.45;0.43;;;21.80;99.90;;;;;;4957203;28;20035;-69
2022/08/15 08:27:15;;;;;;;0.25;0.25;;;21.70;99.90;;;;;;4959811;28;20031;-69
2022/08/15 08:30:11;;;;;;;0.10;0.10;;;21.80;99.90;;;;;;4962225;28;20035;-69
2022/08/15 08:32:56;;;;;;;0.00;0.00;;;22.00;99.90;;;;;;4970590;28;20444;-69
2022/08/15 08:36:27;;;;;;;0.08;0.05;;;22.20;99.90;;;;;;4963336;28;20035;-69
2022/08/15 08:39:02;;;;;;;;;;;22.30;99.90;;;;;;4885690;29;20040;-69
2022/08/15 08:41:42;;;;;;;0.05;0.05;;;22.10;99.90;;;;;;4891395;29;20455;-69
2022/08/15 08:44:43;;;;;;;0.38;0.38;;;22.10;99.90;;;;;;4892565;29;20052;-69
2022/08/15 08:47:46;;;;;;;0.20;0.20;;;22.10;99.90;;;;;;4880784;29;20037;-69
2022/08/15 08:50:40;;;;;;;0.05;0.05;;;22.10;99.90;;;;;;4881365;29;20033;-70
2022/08/15 08:53:29;;;;;;;0.25;0.25;;;22.50;99.90;;;;;;4861768;29;20045;-70
2022/08/15 08:56:09;;;;;;;0.00;0.00;;;22.50;99.90;;;;;;4888018;29;20057;-69
2022/08/15 08:58:42;;;;;;;0.23;0.23;;;22.70;99.90;;;;;;4876992;29;20490;-70
2022/08/15 09:01:27;;;;;;;0.00;0.00;;;23.00;99.90;;;;;;4860460;29;20041;-71
2022/08/15 09:04:06;;;;;;;34.17;0.82;;;22.90;99.90;;;;;;4865688;29;20083;-69
2022/08/15 09:06:39;;;;;;;0.20;0.20;;;23.10;99.90;;;;;;4879488;29;20095;-70
2022/08/15 09:09:32;;;;;;;0.00;0.00;;;23.30;99.90;;;;;;4899625;28;20054;-69
2022/08/15 09:15:01;;;;;;;0.17;0.17;;;23.40;99.90;;;;;;4965181;28;20046;-69
2022/08/15 09:17:33;;;;;;;0.98;0.38;;;23.20;99.90;;;;;;4953736;28;20085;-68
2022/08/15 09:20:14;;;;;;;0.20;0.20;;;23.30;99.90;;;;;;4964454;28;20037;-68
2022/08/15 09:22:40;;;;;;;0.10;0.10;;;23.50;99.90;;;;;;4953154;28;20436;-70
2022/08/15 09:25:08;;;;;;;0.08;0.08;;;23.40;99.90;;;;;;4962403;28;20082;-70
2022/08/15 09:27:48;;;;;;;0.10;0.10;;;23.50;99.90;;;;;;4972565;28;20038;-70
2022/08/15 09:30:15;;;;;;;1.45;1.02;;;23.20;99.90;;;;;;4962048;28;20035;-70
2022/08/15 09:33:22;;;;;;;0.60;0.60;;;23.40;99.90;;;;;;4939001;29;20062;-70
2022/08/15 09:36:47;;;;;;;0.30;0.30;;;23.50;99.90;;;;;;4962541;28;20033;-70
2022/08/15 09:39:57;;;;;;;0.20;0.20;;;23.50;99.90;;;;;;4965585;28;20499;-69
2022/08/15 09:42:39;;;;;;;0.00;0.00;;;23.30;99.90;;;;;;4970427;28;20395;-70
2022/08/15 09:45:52;;;;;;;1.02;0.85;;;23.40;99.90;;;;;;4952614;28;20035;-69
2022/08/15 09:48:39;;;;;;;0.20;0.20;;;23.60;99.90;;;;;;4928076;28;20411;-68
2022/08/15 09:51:38;;;;;;;0.20;0.20;;;23.70;99.90;;;;;;4973101;28;20046;-69
2022/08/15 09:54:24;;;;;;;0.88;0.80;;;24.10;99.90;;;;;;4968709;28;20038;-69
2022/08/15 09:57:28;;;;;;;0.00;0.00;;;24.30;99.90;;;;;;4966177;28;20035;-69
2022/08/15 10:00:05;;;;;;;0.00;0.00;;;24.50;99.90;;;;;;4965919;28;20102;-69
2022/08/15 10:02:33;;;;;;;0.63;0.45;;;24.60;99.90;;;;;;4963819;28;20042;-69
2022/08/15 10:05:00;;;;;;;0.05;0.05;;;24.70;99.90;;;;;;4964625;28;20023;-69
2022/08/15 10:07:42;;;;;;;0.05;0.05;;;24.80;99.90;;;;;;4970129;28;20582;-69
2022/08/15 10:10:31;;;;;;;0.77;0.50;;;24.90;99.90;;;;;;4967878;28;20035;-69
2022/08/15 10:13:38;;;;;;;0.00;0.00;;;24.50;99.90;;;;;;4951929;28;20046;-69
2022/08/15 10:16:04;;;;;;;0.00;0.00;;;24.30;99.90;;;;;;4945293;28;20093;-69
2022/08/15 10:18:38;;;;;;;1.20;0.60;;;24.30;99.90;;;;;;4963862;28;20027;-69
2022/08/15 10:21:21;;;;;;;0.20;0.20;;;24.20;99.90;;;;;;4959058;28;20042;-69
2022/08/15 10:23:50;;;;;;;0.20;0.20;;;24.30;99.90;;;;;;4958506;28;20500;-69
2022/08/15 10:26:34;;;;;;;0.45;0.45;;;24.40;99.90;;;;;;4970127;28;20023;-69
2022/08/15 10:29:17;;;;;;;0.00;0.00;;;24.50;99.90;;;;;;4959102;28;20507;-69
2022/08/15 10:31:57;;;;;;;0.30;0.22;;;24.70;99.90;;;;;;4958583;28;20038;-69
2022/08/15 10:34:37;;;;;;;8.53;0.70;;;24.50;99.90;;;;;;4953908;28;20027;-71
2022/08/15 10:37:15;;;;;;;0.68;0.68;;;24.40;99.90;;;;;;4959761;28;20105;-67
2022/08/15 10:40:14;;;;;;;0.17;0.17;;;24.10;99.90;;;;;;4957237;28;20392;-68
2022/08/15 10:43:08;;;;;;;0.00;0.00;;;23.80;99.90;;;;;;4957743;28;20397;-70
2022/08/15 10:46:08;;;;;;;0.17;0.17;;;23.90;99.90;;;;;;4959977;28;20031;-68
2022/08/15 10:48:49;;;;;;;0.70;0.47;;;24.20;99.90;;;;;;4960831;28;20039;-69
2022/08/15 10:51:48;;;;;;;;;;;24.50;99.90;;;;;;4960949;28;20035;-69
2022/08/15 10:54:40;;;;;;;0.00;0.00;;;24.40;99.90;;;;;;4968193;28;19937;-74
2022/08/15 10:57:09;;;;;;;1.85;0.55;;;24.60;99.90;;;;;;4963432;28;20031;-67
2022/08/15 10:59:49;;;;;;;16.42;0.65;;;24.60;99.90;;;;;;4960695;28;20030;-68
2022/08/15 11:02:31;;;;;;;0.28;0.17;;;24.50;99.90;;;;;;4959340;28;20529;-69
2022/08/15 11:05:11;;;;;;;8.30;1.30;;;24.70;99.90;;;;;;4961257;28;20034;-69
2022/08/15 11:07:47;;;;;;;3.63;1.45;;;24.70;99.90;;;;;;4959962;28;20041;-70
2022/08/15 11:10:18;;;;;;;1.02;0.90;;;25.00;99.90;;;;;;4962401;28;20027;-69
2022/08/15 11:12:48;;;;;;;0.25;0.25;;;25.60;99.90;;;;;;4957992;28;20035;-73
2022/08/15 11:15:30;;;;;;;1.17;1.00;;;25.50;99.90;;;;;;4968561;28;20031;-70
2022/08/15 11:18:04;;;;;;;18.65;0.77;;;25.30;99.90;;;;;;4945929;28;20035;-69
2022/08/15 11:20:46;;;;;;;0.22;0.22;;;25.70;99.90;;;;;;4971425;28;20031;-70
2022/08/15 11:23:31;;;;;;;0.00;0.00;;;25.40;99.50;;;;;;4958507;28;20034;-69
2022/08/15 11:25:58;;;;;;;0.13;0.10;;;25.60;99.20;;;;;;4970550;28;20027;-69
2022/08/15 11:28:25;;;;;;;0.00;0.00;;;25.90;98.40;;;;;;4959447;28;20028;-70
2022/08/15 11:31:12;;;;;;;3.83;1.70;;;25.80;98.00;;;;;;4962234;28;20042;-70
2022/08/15 11:33:45;;;;;;;0.38;0.32;;;26.00;96.20;;;;;;4954915;28;20038;-70
2022/08/15 11:36:25;;;;;;;0.10;0.10;;;26.30;97.00;;;;;;4954608;28;20042;-69
2022/08/15 11:39:00;;;;;;;0.10;0.00;;;26.80;95.50;;;;;;4960969;28;20035;-69
2022/08/15 11:41:30;;;;;;;0.80;0.80;;;26.30;95.30;;;;;;4954124;28;20122;-70
2022/08/15 11:44:00;;;;;;;3.92;0.60;;;26.40;95.30;;;;;;4957464;28;20111;-76
2022/08/15 11:46:27;;;;;;;2.53;1.20;;;26.50;95.00;;;;;;4954136;28;20031;-69
2022/08/15 11:49:06;;;;;;;0.55;0.47;;;26.20;94.50;;;;;;4945746;28;20391;-69
2022/08/15 11:51:41;;;;;;;0.20;0.20;;;26.00;94.80;;;;;;4968214;28;20031;-70
2022/08/15 11:54:22;;;;;;;1.02;0.55;;;26.20;94.80;;;;;;4959613;28;20078;-68
2022/08/15 11:56:52;;;;;;;0.40;0.38;;;26.50;94.30;;;;;;4967037;28;20123;-69
2022/08/15 11:59:39;;;;;;;0.35;0.30;;;26.90;93.90;;;;;;4962319;28;20032;-69
2022/08/15 12:02:30;;;;;;;1.20;0.65;;;27.20;93.30;;;;;;4963830;28;20043;-69
2022/08/15 12:05:07;;;;;;;0.10;0.08;;;27.50;92.30;;;;;;4973973;28;20035;-69
2022/08/15 12:07:45;;;;;;;5.88;0.55;;;27.50;92.70;;;;;;4965923;28;20027;-70
2022/08/15 12:10:28;;;;;;;0.43;0.40;;;27.60;92.80;;;;;;4967398;28;20039;-70
2022/08/15 12:12:55;;;;;;;0.38;0.38;;;27.50;92.60;;;;;;4965970;28;20042;-70
2022/08/15 12:15:32;;;;;;;0.68;0.45;;;27.70;92.40;;;;;;4955960;28;20042;-70
2022/08/15 12:18:20;;;;;;;2.63;0.30;;;27.90;92.50;;;;;;4966510;28;20050;-70
2022/08/15 12:20:54;;;;;;;0.45;0.45;;;28.50;91.80;;;;;;4955746;28;20435;-70
2022/08/15 12:23:28;;;;;;;1.95;0.55;;;28.60;91.50;;;;;;4966687;28;20042;-70
2022/08/15 12:26:00;;;;;;;0.52;0.47;;;28.50;91.40;;;;;;4963644;28;20034;-70
2022/08/15 12:28:30;;;;;;;0.00;0.00;;;28.30;91.70;;;;;;4981663;28;20121;-70
2022/08/15 12:31:34;;;;;;;0.50;0.50;;;28.30;91.70;;;;;;4956276;28;20035;-70
2022/08/15 12:34:31;;;;;;;0.65;0.43;;;27.90;91.80;;;;;;4962662;28;20035;-69
2022/08/15 12:37:05;;;;;;;0.38;0.38;;;27.70;92.10;;;;;;4973559;28;20027;-69
2022/08/15 12:39:31;;;;;;;0.25;0.17;;;27.70;92.20;;;;;;4969102;28;20558;-69
2022/08/15 12:41:56;;;;;;;0.28;0.28;;;28.00;92.10;;;;;;4970416;28;20045;-69
2022/08/15 12:44:28;;;;;;;0.45;0.45;;;28.40;92.00;;;;;;4966091;28;20100;-70
2022/08/15 12:46:55;;;;;;;0.90;0.68;;;28.80;91.00;;;;;;4965821;28;20054;-70
2022/08/15 12:49:21;;;;;;;0.47;0.38;;;28.80;91.10;;;;;;4964896;28;20030;-70
2022/08/15 12:51:47;;;;;;;3.17;0.43;;;28.80;90.70;;;;;;4969140;28;20119;-70
2022/08/15 12:54:14;;;;;;;0.73;0.65;;;29.10;90.90;;;;;;4960717;28;20413;-70
2022/08/15 12:56:42;;;;;;;1.30;0.43;;;29.30;89.60;;;;;;4967853;28;20483;-70
2022/08/15 12:59:08;;;;;;;0.68;0.32;;;29.60;89.70;;;;;;4961263;28;20070;-69
2022/08/15 13:01:36;;;;;;;0.95;0.57;;;29.70;88.70;;;;;;4959029;28;20447;-70
2022/08/15 13:04:07;;;;;;;0.13;0.13;;;29.30;89.10;;;;;;4980853;28;20139;-70
2022/08/15 13:06:46;;;;;;;2.17;1.52;;;28.90;89.30;;;;;;4957525;28;20043;-70
2022/08/15 13:09:15;;;;;;;3.15;1.58;;;29.20;89.10;;;;;;4968892;28;20572;-70
2022/08/15 13:11:42;;;;;;;4.45;0.68;;;29.40;88.40;;;;;;4968341;28;20035;-70
2022/08/15 13:14:11;;;;;;;1.75;0.73;;;29.20;89.00;;;;;;4968108;28;20476;-70
2022/08/15 13:16:37;;;;;;;0.63;0.63;;;29.10;88.60;;;;;;4957899;28;20070;-70
2022/08/15 13:19:08;;;;;;;0.10;0.10;;;29.00;88.70;;;;;;4941208;29;20019;-70
2022/08/15 13:24:19;;;;;;;0.22;0.22;;;29.10;88.70;;;;;;4962203;28;20062;-69
2022/08/15 13:26:46;;;;;;;0.73;0.65;;;28.90;88.50;;;;;;4955601;28;20495;-71
2022/08/15 13:29:15;;;;;;;0.10;0.10;;;29.00;87.90;;;;;;4962468;28;20036;-69
2022/08/15 13:31:42;;;;;;;0.10;0.10;;;29.10;87.90;;;;;;4958195;28;20046;-69
2022/08/15 13:34:08;;;;;;;0.20;0.20;;;29.00;88.70;;;;;;4964785;28;20145;-69
2022/08/15 13:36:34;;;;;;;0.10;0.10;;;29.00;87.50;;;;;;4972729;28;20081;-69
2022/08/15 13:39:11;;;;;;;0.08;0.08;;;28.90;87.90;;;;;;4965229;28;20039;-69
2022/08/15 13:41:38;;;;;;;0.75;0.65;;;29.70;87.00;;;;;;4958164;28;20391;-69
2022/08/15 13:44:05;;;;;;;0.17;0.17;;;30.50;84.90;;;;;;4961319;28;20031;-69